createdAt,value
2023-04-02T00:00:28.181Z,15.57
2023-04-02T00:02:55.395Z,16.27
2023-04-02T00:05:30.493Z,17.02
2023-04-02T00:08:03.527Z,15.15
2023-04-02T00:13:10.951Z,15.55
2023-04-02T00:15:49.174Z,16.77
2023-04-02T00:18:19.397Z,17.80
2023-04-02T00:20:54.867Z,18.42
2023-04-02T00:23:22.750Z,16.75
2023-04-02T00:25:49.602Z,18.13
2023-04-02T00:28:21.817Z,17.58
2023-04-02T00:31:00.267Z,18.23
2023-04-02T00:33:30.310Z,18.27
2023-04-02T00:35:57.519Z,18.02
2023-04-02T00:38:33.444Z,17.85
2023-04-02T00:41:03.912Z,17.52
2023-04-02T00:43:37.044Z,17.63
2023-04-02T00:46:11.056Z,16.40
2023-04-02T00:49:12.613Z,17.13
2023-04-02T00:51:46.489Z,17.48
2023-04-02T00:54:16.705Z,16.77
2023-04-02T00:56:46.437Z,18.92
2023-04-02T00:59:42.951Z,17.33
2023-04-02T01:02:17.479Z,18.27
2023-04-02T01:05:02.306Z,16.70
2023-04-02T01:07:42.782Z,18.05
2023-04-02T01:10:16.207Z,16.90
2023-04-02T01:13:04.565Z,17.05
2023-04-02T01:15:52.368Z,17.63
2023-04-02T01:18:31.423Z,17.73
2023-04-02T01:21:12.996Z,17.92
2023-04-02T01:24:00.773Z,17.42
2023-04-02T01:27:08.657Z,17.58
2023-04-02T01:29:47.219Z,17.17
2023-04-02T01:32:17.377Z,18.17
2023-04-02T01:34:47.547Z,17.00
2023-04-02T01:37:22.861Z,18.65
2023-04-02T01:40:17.667Z,16.98
2023-04-02T01:43:03.784Z,16.88
2023-04-02T01:45:30.991Z,17.88
2023-04-02T01:47:58.466Z,17.88
2023-04-02T01:50:31.680Z,17.38
2023-04-02T01:53:04.361Z,16.38
2023-04-02T01:55:44.524Z,18.65
2023-04-02T01:58:14.165Z,17.95
2023-04-02T02:00:53.559Z,16.98
2023-04-02T02:05:48.669Z,16.98
2023-04-02T02:08:37.136Z,18.38
2023-04-02T02:11:04.176Z,18.23
2023-04-02T02:13:31.979Z,19.15
2023-04-02T02:16:00.434Z,18.75
2023-04-02T02:18:28.815Z,18.48
2023-04-02T02:20:58.619Z,19.40
2023-04-02T02:23:28.224Z,19.45
2023-04-02T02:25:56.214Z,19.88
2023-04-02T02:28:36.431Z,17.92
2023-04-02T02:31:07.733Z,18.50
2023-04-02T02:33:39.560Z,19.13
2023-04-02T02:36:29.392Z,19.30
2023-04-02T02:39:03.627Z,19.25
2023-04-02T02:41:49.581Z,21.30
2023-04-02T02:44:31.529Z,18.38
2023-04-02T02:47:29.657Z,18.38
2023-04-02T02:50:06.271Z,20.63
2023-04-02T02:52:36.416Z,19.50
2023-04-02T02:55:05.576Z,20.63
2023-04-02T02:57:36.389Z,21.70
2023-04-02T03:00:06.819Z,20.20
2023-04-02T03:02:37.655Z,19.60
2023-04-02T03:05:05.393Z,19.40
2023-04-02T03:07:32.583Z,19.83
2023-04-02T03:10:12.408Z,19.90
2023-04-02T03:12:42.162Z,19.50
2023-04-02T03:15:47.992Z,19.90
2023-04-02T03:18:32.328Z,19.95
2023-04-02T03:21:15.416Z,19.20
2023-04-02T03:23:54.800Z,19.33
2023-04-02T03:26:32.679Z,19.02
2023-04-02T03:29:08.654Z,20.58
2023-04-02T03:32:06.627Z,21.00
2023-04-02T03:34:48.402Z,18.98
2023-04-02T03:37:27.754Z,18.77
2023-04-02T03:40:04.585Z,19.23
2023-04-02T03:42:45.975Z,21.83
2023-04-02T03:45:24.182Z,20.42
2023-04-02T03:48:18.052Z,19.35
2023-04-02T03:50:53.545Z,19.27
2023-04-02T03:53:24.076Z,20.30
2023-04-02T03:55:51.649Z,18.90
2023-04-02T03:58:43.197Z,19.75
2023-04-02T04:01:35.302Z,20.88
2023-04-02T04:06:36.807Z,18.10
2023-04-02T04:09:36.260Z,18.90
2023-04-02T04:12:22.024Z,19.88
2023-04-02T04:18:02.335Z,18.92
2023-04-02T04:20:56.673Z,18.88
2023-04-02T04:23:31.694Z,19.08
2023-04-02T04:26:11.811Z,19.42
2023-04-02T04:28:47.532Z,18.92
2023-04-02T04:31:30.924Z,18.48
2023-04-02T04:34:05.140Z,18.88
2023-04-02T04:36:41.523Z,19.92
2023-04-02T04:39:29.762Z,19.27
2023-04-02T04:42:00.277Z,18.40
2023-04-02T04:44:32.817Z,19.30
2023-04-02T04:47:10.404Z,18.67
2023-04-02T04:49:47.701Z,18.23
2023-04-02T04:52:17.198Z,20.00
2023-04-02T04:54:48.509Z,18.92
2023-04-02T04:57:34.219Z,19.35
2023-04-02T05:02:57.353Z,18.40
2023-04-02T05:05:31.436Z,20.08
2023-04-02T05:08:27.237Z,19.50
2023-04-02T05:11:11.876Z,20.02
2023-04-02T05:14:01.266Z,20.63
2023-04-02T05:16:43.092Z,20.23
2023-04-02T05:19:21.147Z,19.23
2023-04-02T05:21:57.343Z,18.83
2023-04-02T05:24:47.447Z,18.45
2023-04-02T05:27:40.592Z,20.00
2023-04-02T05:30:53.466Z,18.33
2023-04-02T05:33:30.081Z,18.25
2023-04-02T05:36:01.536Z,16.42
2023-04-02T05:38:32.105Z,17.15
2023-04-02T05:41:31.357Z,15.85
2023-04-02T05:44:16.473Z,15.20
2023-04-02T05:46:56.685Z,15.18
2023-04-02T05:49:26.752Z,14.23
2023-04-02T05:51:58.776Z,14.50
2023-04-02T05:54:34.627Z,14.77
2023-04-02T05:57:11.652Z,15.10
2023-04-02T05:59:43.277Z,15.30
2023-04-02T06:02:41.342Z,15.00
2023-04-02T06:05:22.258Z,17.98
2023-04-02T06:07:51.703Z,15.90
2023-04-02T06:10:26.498Z,17.27
2023-04-02T06:13:03.896Z,17.45
2023-04-02T06:15:33.262Z,18.75
2023-04-02T06:18:21.891Z,17.98
2023-04-02T06:20:48.850Z,17.60
2023-04-02T06:23:30.870Z,17.67
2023-04-02T06:26:19.396Z,16.60
2023-04-02T06:29:04.821Z,16.90
2023-04-02T06:31:46.217Z,16.90
2023-04-02T06:34:23.965Z,18.00
2023-04-02T06:36:55.108Z,17.38
2023-04-02T06:39:24.378Z,17.10
2023-04-02T06:42:06.372Z,17.77
2023-04-02T06:44:36.326Z,17.65
2023-04-02T06:47:39.331Z,18.95
2023-04-02T06:50:16.765Z,16.92
2023-04-02T06:52:51.696Z,19.10
2023-04-02T06:55:33.815Z,17.75
2023-04-02T06:58:00.857Z,17.92
2023-04-02T07:02:56.404Z,17.42
2023-04-02T07:05:23.373Z,16.98
2023-04-02T07:07:50.184Z,18.92
2023-04-02T07:10:17.022Z,18.75
2023-04-02T07:12:43.810Z,17.08
2023-04-02T07:17:42.002Z,15.98
2023-04-02T07:20:27.964Z,16.65
2023-04-02T07:22:55.473Z,16.83
2023-04-02T07:25:23.460Z,16.17
2023-04-02T07:27:50.776Z,17.15
2023-04-02T07:30:17.801Z,16.50
2023-04-02T07:32:45.514Z,16.13
2023-04-02T07:35:13.072Z,16.50
2023-04-02T07:37:39.970Z,14.60
2023-04-02T07:40:14.650Z,14.75
2023-04-02T07:42:41.380Z,14.50
2023-04-02T07:47:35.396Z,15.40
2023-04-02T07:50:02.172Z,15.70
2023-04-02T07:54:55.691Z,15.60
2023-04-02T07:59:49.485Z,15.20
2023-04-02T08:04:46.246Z,14.95
2023-04-02T08:07:12.985Z,15.02
2023-04-02T08:12:06.670Z,15.77
2023-04-02T08:14:33.425Z,14.73
2023-04-02T08:19:26.903Z,15.30
2023-04-02T08:24:23.977Z,14.15
2023-04-02T08:26:53.481Z,15.20
2023-04-02T08:29:21.082Z,15.18
2023-04-02T08:31:48.063Z,15.15
2023-04-02T08:34:14.846Z,14.70
2023-04-02T08:36:43.765Z,12.75
2023-04-02T08:39:13.746Z,13.32
2023-04-02T08:41:50.949Z,11.02
2023-04-02T08:44:33.744Z,10.40
2023-04-02T08:47:09.069Z,9.70
2023-04-02T08:49:37.976Z,7.95
2023-04-02T08:52:05.227Z,7.60
2023-04-02T08:54:38.020Z,7.47
2023-04-02T08:57:12.121Z,7.55
2023-04-02T08:59:42.395Z,8.57
2023-04-02T09:02:32.291Z,9.60
2023-04-02T09:05:02.380Z,8.85
2023-04-02T09:07:29.641Z,10.13
2023-04-02T09:09:58.166Z,9.30
2023-04-02T09:12:32.389Z,8.93
2023-04-02T09:15:14.295Z,8.10
2023-04-02T09:17:53.194Z,7.38
2023-04-02T09:22:53.072Z,6.40
2023-04-02T09:25:33.511Z,6.80
2023-04-02T09:28:05.016Z,7.20
2023-04-02T09:30:45.270Z,7.15
2023-04-02T09:33:12.947Z,6.47
2023-04-02T09:35:56.445Z,7.93
2023-04-02T09:38:35.362Z,8.13
2023-04-02T09:41:05.101Z,7.65
2023-04-02T09:43:34.375Z,7.47
2023-04-02T09:46:13.194Z,7.40
2023-04-02T09:48:58.019Z,7.32
2023-04-02T09:51:31.662Z,8.07
2023-04-02T09:54:04.561Z,8.68
2023-04-02T09:56:39.821Z,7.80
2023-04-02T09:59:12.811Z,8.13
2023-04-02T10:01:42.659Z,8.43
2023-04-02T10:04:39.285Z,7.78
2023-04-02T10:07:07.045Z,7.80
2023-04-02T10:09:37.883Z,8.27
2023-04-02T10:12:13.746Z,9.00
2023-04-02T10:14:45.942Z,8.77
2023-04-02T10:17:18.820Z,9.15
2023-04-02T10:20:11.494Z,8.38
2023-04-02T10:22:38.712Z,9.73
2023-04-02T10:25:17.532Z,9.38
2023-04-02T10:27:57.063Z,9.88
2023-04-02T10:30:41.220Z,10.90
2023-04-02T10:33:34.343Z,11.02
2023-04-02T10:36:17.821Z,12.15
2023-04-02T10:39:01.850Z,10.68
2023-04-02T10:41:54.424Z,10.85
2023-04-02T10:44:46.101Z,11.00
2023-04-02T10:47:34.348Z,11.88
2023-04-02T10:50:22.490Z,11.15
2023-04-02T10:53:16.441Z,12.95
2023-04-02T10:55:56.423Z,12.48
2023-04-02T10:58:28.701Z,12.30
2023-04-02T11:01:09.382Z,12.55
2023-04-02T11:03:48.712Z,12.23
2023-04-02T11:06:35.814Z,10.55
2023-04-02T11:09:07.398Z,9.75
2023-04-02T11:11:43.910Z,10.52
2023-04-02T11:14:29.990Z,12.68
2023-04-02T11:17:04.774Z,9.80
2023-04-02T11:19:33.308Z,9.27
2023-04-02T11:22:21.043Z,10.00
2023-04-02T11:24:52.241Z,8.68
2023-04-02T11:27:27.986Z,8.48
2023-04-02T11:30:19.402Z,8.80
2023-04-02T11:32:49.633Z,6.75
2023-04-02T11:35:31.964Z,7.10
2023-04-02T11:38:22.957Z,6.53
2023-04-02T11:40:57.542Z,6.82
2023-04-02T11:43:33.229Z,0.80
2023-04-02T11:46:54.394Z,0.75
2023-04-02T11:49:40.027Z,0.50
2023-04-02T11:52:21.773Z,0.43
2023-04-02T11:54:58.140Z,0.90
2023-04-02T11:57:50.777Z,0.60
2023-04-02T12:00:31.854Z,0.43
2023-04-02T12:03:04.513Z,0.65
2023-04-02T12:05:43.145Z,0.60
2023-04-02T12:08:33.049Z,0.52
2023-04-02T12:11:01.519Z,0.93
2023-04-02T12:13:40.477Z,0.82
2023-04-02T12:16:11.415Z,0.70
2023-04-02T12:18:47.108Z,0.50
2023-04-02T12:21:19.293Z,0.57
2023-04-02T12:23:47.969Z,0.30
2023-04-02T12:26:32.196Z,0.55
2023-04-02T12:29:27.559Z,0.50
2023-04-02T12:31:59.165Z,0.50
2023-04-02T12:34:30.569Z,0.80
2023-04-02T12:37:05.507Z,0.80
2023-04-02T12:39:34.003Z,0.60
2023-04-02T12:42:01.139Z,0.60
2023-04-02T12:44:30.044Z,0.60
2023-04-02T12:46:57.971Z,0.60
2023-04-02T12:49:41.390Z,0.80
2023-04-02T12:52:12.846Z,0.50
2023-04-02T12:54:54.031Z,0.70
2023-04-02T12:57:25.065Z,0.90
2023-04-02T12:59:56.228Z,0.40
2023-04-02T13:02:29.042Z,0.63
2023-04-02T13:05:01.339Z,0.70
2023-04-02T13:07:33.562Z,0.80
2023-04-02T13:10:03.492Z,0.40
2023-04-02T13:12:39.901Z,0.57
2023-04-02T13:15:08.631Z,0.60
2023-04-02T13:17:46.685Z,0.40
2023-04-02T13:20:34.029Z,0.60
2023-04-02T13:23:22.004Z,0.40
2023-04-02T13:25:48.755Z,0.50
2023-04-02T13:28:15.866Z,0.50
2023-04-02T13:30:42.694Z,0.30
2023-04-02T13:33:09.584Z,0.40
2023-04-02T13:35:36.479Z,0.35
2023-04-02T13:38:04.023Z,0.30
2023-04-02T13:40:31.111Z,0.50
2023-04-02T13:42:57.948Z,0.50
2023-04-02T13:45:37.259Z,0.50
2023-04-02T13:50:33.493Z,0.40
2023-04-02T13:53:08.368Z,0.40
2023-04-02T13:55:41.502Z,0.30
2023-04-02T13:58:08.514Z,0.40
2023-04-02T14:00:37.845Z,0.45
2023-04-02T14:03:09.818Z,0.50
2023-04-02T14:05:55.049Z,0.60
2023-04-02T14:08:30.945Z,0.50
2023-04-02T14:11:15.709Z,0.50
2023-04-02T14:14:11.888Z,0.40
2023-04-02T14:17:11.467Z,0.52
2023-04-02T14:19:54.801Z,0.50
2023-04-02T14:22:36.290Z,0.50
2023-04-02T14:25:21.750Z,0.28
2023-04-02T14:28:15.825Z,0.40
2023-04-02T14:30:52.022Z,0.40
2023-04-02T14:33:33.644Z,0.50
2023-04-02T14:36:15.631Z,0.47
2023-04-02T14:38:51.537Z,0.47
2023-04-02T14:41:43.399Z,0.50
2023-04-02T14:46:39.567Z,0.40
2023-04-02T14:49:09.221Z,0.60
2023-04-02T14:51:47.280Z,0.40
2023-04-02T14:54:38.792Z,0.50
2023-04-02T14:57:16.813Z,0.90
2023-04-02T14:59:57.587Z,0.30
2023-04-02T15:02:36.394Z,0.50
2023-04-02T15:05:39.484Z,0.70
2023-04-02T15:08:27.212Z,0.50
2023-04-02T15:11:12.005Z,0.40
2023-04-02T15:13:54.538Z,0.40
2023-04-02T15:16:23.747Z,0.43
2023-04-02T15:18:52.470Z,0.35
2023-04-02T15:21:33.333Z,0.60
2023-04-02T15:24:15.869Z,0.43
2023-04-02T15:26:55.179Z,0.50
2023-04-02T15:29:38.435Z,0.50
2023-04-02T15:32:32.391Z,0.60
2023-04-02T15:35:17.918Z,0.45
2023-04-02T15:38:05.780Z,0.60
2023-04-02T15:41:00.480Z,0.50
2023-04-02T15:43:45.027Z,0.60
2023-04-02T15:46:14.856Z,0.70
2023-04-02T15:48:51.399Z,0.60
2023-04-02T15:51:22.962Z,0.77
2023-04-02T15:54:17.681Z,0.50
2023-04-02T15:56:44.384Z,0.60
2023-04-02T15:59:30.794Z,0.52
2023-04-02T16:02:32.961Z,0.45
2023-04-02T16:05:06.481Z,0.50
2023-04-02T16:07:51.190Z,0.70
2023-04-02T16:12:56.476Z,0.52
2023-04-02T16:15:37.564Z,0.60
2023-04-02T16:18:23.449Z,0.65
2023-04-02T16:20:51.985Z,0.60
2023-04-02T16:23:24.582Z,0.60
2023-04-02T16:26:12.934Z,0.60
2023-04-02T16:29:05.974Z,0.57
2023-04-02T16:31:50.188Z,0.75
2023-04-02T16:34:28.803Z,0.82
2023-04-02T16:37:03.037Z,0.93
2023-04-02T16:40:13.098Z,0.80
2023-04-02T16:43:04.502Z,0.80
2023-04-02T16:45:46.179Z,4.53
2023-04-02T16:48:24.219Z,0.98
2023-04-02T16:51:16.634Z,1.02
2023-04-02T16:54:12.112Z,1.40
2023-04-02T16:56:54.281Z,1.10
2023-04-02T16:59:33.355Z,0.77
2023-04-02T17:02:27.433Z,0.90
2023-04-02T17:05:12.462Z,1.00
2023-04-02T17:08:17.254Z,0.93
2023-04-02T17:11:02.321Z,0.70
2023-04-02T17:13:44.668Z,0.90
2023-04-02T17:16:26.983Z,0.90
2023-04-02T17:18:57.895Z,1.00
2023-04-02T17:21:27.195Z,0.80
2023-04-02T17:24:21.640Z,0.90
2023-04-02T17:26:52.888Z,1.00
2023-04-02T17:29:27.214Z,1.00
2023-04-02T17:32:01.332Z,1.67
2023-04-02T17:34:29.109Z,1.23
2023-04-02T17:37:17.735Z,0.90
2023-04-02T17:39:52.365Z,1.00
2023-04-02T17:42:34.248Z,1.23
2023-04-02T17:45:22.344Z,1.05
2023-04-02T17:48:01.993Z,1.10
2023-04-02T17:50:59.646Z,1.10
2023-04-02T17:53:49.058Z,1.30
2023-04-02T17:56:41.173Z,1.30
2023-04-02T17:59:21.694Z,1.50
2023-04-02T18:02:18.421Z,1.50
2023-04-02T18:04:54.372Z,1.85
2023-04-02T18:07:39.705Z,1.55
2023-04-02T18:10:43.052Z,1.50
2023-04-02T18:13:34.710Z,1.20
2023-04-02T18:16:31.958Z,1.48
2023-04-02T18:19:08.454Z,1.70
2023-04-02T18:22:01.102Z,2.80
2023-04-02T18:24:56.296Z,2.72
2023-04-02T18:27:39.001Z,2.63
2023-04-02T18:30:23.998Z,2.95
2023-04-02T18:33:12.082Z,3.03
2023-04-02T18:35:47.658Z,4.15
2023-04-02T18:38:26.512Z,4.28
2023-04-02T18:41:01.984Z,4.80
2023-04-02T18:43:38.916Z,5.03
2023-04-02T18:46:15.685Z,5.63
2023-04-02T18:49:04.360Z,5.22
2023-04-02T18:51:37.006Z,6.20
2023-04-02T18:54:15.783Z,5.13
2023-04-02T18:56:43.099Z,5.68
2023-04-02T18:59:17.508Z,5.68
2023-04-02T19:01:49.240Z,6.13
2023-04-02T19:04:28.854Z,6.70
2023-04-02T19:07:10.803Z,6.80
2023-04-02T19:09:42.891Z,6.93
2023-04-02T19:12:21.019Z,6.35
2023-04-02T19:14:51.041Z,6.95
2023-04-02T19:17:46.988Z,6.85
2023-04-02T19:20:36.226Z,5.57
2023-04-02T19:23:12.291Z,5.53
2023-04-02T19:26:17.606Z,4.63
2023-04-02T19:29:15.314Z,3.97
2023-04-02T19:32:00.053Z,3.88
2023-04-02T19:35:02.085Z,3.15
2023-04-02T19:37:41.957Z,2.60
2023-04-02T19:40:39.859Z,3.30
2023-04-02T19:43:09.525Z,3.70
2023-04-02T19:45:45.350Z,3.22
2023-04-02T19:48:20.371Z,3.55
2023-04-02T19:50:48.125Z,2.97
2023-04-02T19:53:15.853Z,2.70
2023-04-02T19:55:43.570Z,2.80
2023-04-02T19:58:27.553Z,3.10
2023-04-02T20:00:54.913Z,2.60
2023-04-02T20:03:22.109Z,3.17
2023-04-02T20:05:49.412Z,2.97
2023-04-02T20:08:16.320Z,3.30
2023-04-02T20:10:43.134Z,3.35
2023-04-02T20:13:09.984Z,3.30
2023-04-02T20:15:37.389Z,3.92
2023-04-02T20:18:04.915Z,4.43
2023-04-02T20:20:31.927Z,4.38
2023-04-02T20:22:58.691Z,4.00
2023-04-02T20:25:25.458Z,3.53
2023-04-02T20:27:52.767Z,3.40
2023-04-02T20:30:19.640Z,2.90
2023-04-02T20:32:46.719Z,3.20
2023-04-02T20:35:13.603Z,3.03
2023-04-02T20:37:41.921Z,2.58
2023-04-02T20:40:10.097Z,3.70
2023-04-02T20:42:36.950Z,2.90
2023-04-02T20:45:06.152Z,2.50
2023-04-02T20:47:33.237Z,2.28
2023-04-02T20:50:00.113Z,2.03
2023-04-02T20:52:29.985Z,1.90
2023-04-02T20:54:57.341Z,1.70
2023-04-02T20:57:26.016Z,2.20
2023-04-02T20:59:53.046Z,2.22
2023-04-02T21:02:19.885Z,2.00
2023-04-02T21:04:46.712Z,1.80
2023-04-02T21:07:13.486Z,2.28
2023-04-02T21:12:07.366Z,2.15
2023-04-02T21:14:38.272Z,1.77
2023-04-02T21:17:07.098Z,1.80
2023-04-02T21:19:34.955Z,2.53
2023-04-02T21:22:02.061Z,1.67
2023-04-02T21:24:28.901Z,1.60
2023-04-02T21:26:55.830Z,2.00
2023-04-02T21:29:22.639Z,1.85
2023-04-02T21:31:50.290Z,1.50
2023-04-02T21:34:17.381Z,1.30
2023-04-02T21:36:46.660Z,1.20
2023-04-02T21:39:19.158Z,1.17
2023-04-02T21:41:47.066Z,1.52
2023-04-02T21:44:15.614Z,1.15
2023-04-02T21:46:43.652Z,1.40
2023-04-02T21:49:16.322Z,1.10
2023-04-02T21:51:44.265Z,1.00
2023-04-02T21:54:11.217Z,1.20
2023-04-02T21:56:40.585Z,1.63
2023-04-02T21:59:09.424Z,1.70
2023-04-02T22:01:39.504Z,1.80
2023-04-02T22:04:08.292Z,1.90
2023-04-02T22:06:41.126Z,2.17
2023-04-02T22:09:11.339Z,2.35
2023-04-02T22:11:44.402Z,2.42
2023-04-02T22:14:11.684Z,1.75
2023-04-02T22:16:39.073Z,1.95
2023-04-02T22:19:09.017Z,2.15
2023-04-02T22:21:36.693Z,2.05
2023-04-02T22:24:05.643Z,2.55
2023-04-02T22:26:33.242Z,2.45
2023-04-02T22:29:00.813Z,2.47
2023-04-02T22:31:29.928Z,2.30
2023-04-02T22:33:58.015Z,2.45
2023-04-02T22:36:26.348Z,2.53
2023-04-02T22:38:53.525Z,2.55
2023-04-02T22:41:23.195Z,2.97
2023-04-02T22:43:50.499Z,2.58
2023-04-02T22:46:18.365Z,2.45
2023-04-02T22:48:46.834Z,2.40
2023-04-02T22:51:15.328Z,2.60
2023-04-02T22:53:43.101Z,2.22
2023-04-02T22:56:22.071Z,2.10
2023-04-02T22:58:49.278Z,2.70
2023-04-02T23:01:25.951Z,2.35
2023-04-02T23:03:55.980Z,2.10
2023-04-02T23:06:24.057Z,2.13
2023-04-02T23:08:51.531Z,2.08
2023-04-02T23:11:24.695Z,1.60
2023-04-02T23:13:53.415Z,1.60
2023-04-02T23:16:21.346Z,1.80
2023-04-02T23:18:49.013Z,1.83
2023-04-02T23:21:17.150Z,1.52
2023-04-02T23:23:43.986Z,1.50
2023-04-02T23:26:22.336Z,1.70
2023-04-02T23:28:50.799Z,1.88
2023-04-02T23:31:21.009Z,1.77
2023-04-02T23:33:48.583Z,1.40
2023-04-02T23:36:18.708Z,1.92
2023-04-02T23:38:45.681Z,1.42
2023-04-02T23:41:17.413Z,1.70
2023-04-02T23:43:44.243Z,1.75
2023-04-02T23:46:11.630Z,2.10
2023-04-02T23:48:38.930Z,1.90
2023-04-02T23:51:05.853Z,1.90
2023-04-02T23:53:33.618Z,2.28
2023-04-02T23:56:00.411Z,1.77
2023-04-02T23:58:27.153Z,1.10
